Time;durP1;ratioP1;P1;durP2;ratioP2;P2;SDS_P1;SDS_P2;PMS_P1;PMS_P2;Temp;Humidity;BMP_temperature;BMP_pressure;BME280_temperature;BME280_humidity;BME280_pressure;Samples;Min_cycle;Max_cycle;Signal;HPM_P1;HPM_P2
2022/09/15 00:00:23;;;;;;;4.60;4.18;;;13.80;99.90;;;;;;4978776;28;20056;-87
2022/09/15 00:02:51;;;;;;;7.55;4.55;;;13.90;99.90;;;;;;4978645;28;20378;-86
2022/09/15 00:05:17;;;;;;;7.38;4.53;;;13.90;99.90;;;;;;4993732;28;20164;-87
2022/09/15 00:07:43;;;;;;;7.20;4.95;;;13.90;99.90;;;;;;4984188;28;20587;-87
2022/09/15 00:10:09;;;;;;;9.63;4.93;;;13.90;99.90;;;;;;4979001;28;20042;-86
2022/09/15 00:12:35;;;;;;;6.63;4.75;;;14.00;99.90;;;;;;5000791;28;20046;-87
2022/09/15 00:15:01;;;;;;;8.25;4.95;;;14.00;99.90;;;;;;4976391;28;20216;-86
2022/09/15 00:17:26;;;;;;;6.50;4.38;;;14.00;99.90;;;;;;4988145;28;20138;-88
2022/09/15 00:19:57;;;;;;;7.03;4.88;;;14.10;99.90;;;;;;4995486;28;20131;-86
2022/09/15 00:22:24;;;;;;;8.05;4.68;;;14.20;99.90;;;;;;4984218;28;20405;-87
2022/09/15 00:24:49;;;;;;;6.53;4.80;;;14.30;99.90;;;;;;4993069;28;20042;-87
2022/09/15 00:27:16;;;;;;;8.10;4.63;;;14.40;99.90;;;;;;4980920;28;20390;-85
2022/09/15 00:29:42;;;;;;;8.43;3.50;;;14.30;99.90;;;;;;4982162;28;20486;-87
2022/09/15 00:32:07;;;;;;;5.75;4.00;;;14.40;99.90;;;;;;4969596;28;20041;-85
2022/09/15 00:34:33;;;;;;;11.80;3.88;;;14.40;99.90;;;;;;4977285;28;20046;-86
2022/09/15 00:36:59;;;;;;;7.45;3.50;;;14.40;99.90;;;;;;4992009;28;20038;-86
2022/09/15 00:39:24;;;;;;;8.15;4.00;;;14.40;99.90;;;;;;4968326;28;20046;-86
2022/09/15 00:41:50;;;;;;;4.80;3.67;;;14.30;99.90;;;;;;4970157;28;20055;-86
2022/09/15 00:44:16;;;;;;;7.75;3.90;;;14.40;99.90;;;;;;4996541;28;20058;-87
2022/09/15 00:46:47;;;;;;;6.80;3.67;;;14.40;99.90;;;;;;4979634;28;20054;-86
2022/09/15 00:49:22;;;;;;;7.63;3.70;;;14.30;99.90;;;;;;4979456;28;20046;-86
2022/09/15 00:51:49;;;;;;;;;;;14.30;99.90;;;;;;4980793;28;20156;-86
2022/09/15 00:54:19;;;;;;;8.23;3.42;;;14.30;99.90;;;;;;4980713;28;20017;-87
2022/09/15 00:56:48;;;;;;;8.90;3.50;;;14.30;99.90;;;;;;4978361;28;20050;-86
2022/09/15 00:59:17;;;;;;;7.55;3.22;;;14.30;99.90;;;;;;5004030;28;20387;-86
2022/09/15 01:01:45;;;;;;;6.78;3.58;;;14.40;99.90;;;;;;5004312;28;20042;-86
2022/09/15 01:04:13;;;;;;;7.70;3.15;;;14.30;99.90;;;;;;4978475;28;20481;-86
2022/09/15 01:06:44;;;;;;;7.53;3.38;;;14.30;99.90;;;;;;4976522;28;20084;-85
2022/09/15 01:09:18;;;;;;;5.65;3.08;;;14.30;99.90;;;;;;4979440;28;20251;-86
2022/09/15 01:11:44;;;;;;;7.30;3.33;;;14.20;99.90;;;;;;4982314;28;20530;-86
2022/09/15 01:14:10;;;;;;;7.60;3.35;;;14.20;99.90;;;;;;4989405;28;20038;-86
2022/09/15 01:16:51;;;;;;;7.00;3.42;;;14.30;99.90;;;;;;4977194;28;20604;-86
2022/09/15 01:19:46;;;;;;;4.38;3.00;;;14.30;99.90;;;;;;4978926;28;20043;-85
2022/09/15 01:22:41;;;;;;;7.57;3.53;;;14.20;99.90;;;;;;4963171;28;20320;-85
2022/09/15 01:25:28;;;;;;;6.33;3.00;;;14.20;99.90;;;;;;4973676;28;20058;-86
2022/09/15 01:28:35;;;;;;;4.22;2.60;;;14.20;99.90;;;;;;5004887;28;20498;-86
2022/09/15 01:31:23;;;;;;;5.22;3.10;;;14.00;99.90;;;;;;4989785;28;20053;-86
2022/09/15 01:34:15;;;;;;;7.22;3.22;;;14.10;99.90;;;;;;4963333;28;20199;-86
2022/09/15 01:36:54;;;;;;;7.97;3.50;;;14.10;99.90;;;;;;4979576;28;20096;-86
2022/09/15 01:39:27;;;;;;;6.82;3.10;;;14.10;99.90;;;;;;5009995;28;20054;-87
2022/09/15 01:42:00;;;;;;;6.80;3.50;;;14.10;99.90;;;;;;4972333;28;20565;-86
2022/09/15 01:44:32;;;;;;;6.75;3.33;;;14.00;99.90;;;;;;4983288;28;20416;-86
2022/09/15 01:47:05;;;;;;;8.23;3.55;;;13.90;99.90;;;;;;4977112;28;20304;-86
2022/09/15 01:49:38;;;;;;;8.80;3.33;;;14.00;99.90;;;;;;4982204;28;20073;-86
2022/09/15 01:52:05;;;;;;;6.53;3.38;;;14.00;99.90;;;;;;4971404;28;20125;-87
2022/09/15 01:54:39;;;;;;;9.50;4.00;;;14.00;99.90;;;;;;4977390;28;20042;-87
2022/09/15 01:57:04;;;;;;;9.23;4.43;;;14.00;99.90;;;;;;4983167;28;20397;-86
2022/09/15 01:59:30;;;;;;;7.47;3.78;;;14.00;99.90;;;;;;4989260;28;20046;-86
2022/09/15 02:02:14;;;;;;;8.93;4.22;;;13.90;99.90;;;;;;4971212;28;20116;-86
2022/09/15 02:04:49;;;;;;;7.25;3.63;;;13.90;99.90;;;;;;4978037;28;20074;-86
2022/09/15 02:07:25;;;;;;;7.13;3.55;;;14.00;99.90;;;;;;4979670;28;20033;-86
2022/09/15 02:10:00;;;;;;;6.63;3.78;;;13.90;99.90;;;;;;4986049;28;20190;-86
2022/09/15 02:12:38;;;;;;;8.95;4.03;;;14.10;99.90;;;;;;4986918;28;20442;-87
2022/09/15 02:15:08;;;;;;;9.00;4.15;;;14.00;99.90;;;;;;4978942;28;20100;-86
2022/09/15 02:17:41;;;;;;;9.35;2.55;;;14.00;99.90;;;;;;4991304;28;20057;-86
2022/09/15 02:20:19;;;;;;;7.80;3.03;;;14.10;99.90;;;;;;5007763;28;20193;-86
2022/09/15 02:22:54;;;;;;;5.88;2.03;;;14.10;99.90;;;;;;4982951;28;20050;-87
2022/09/15 02:25:40;;;;;;;10.05;1.98;;;14.20;99.90;;;;;;4978754;28;20454;-86
2022/09/15 02:28:08;;;;;;;7.88;1.80;;;14.20;99.90;;;;;;4977479;28;20402;-86
2022/09/15 02:30:40;;;;;;;6.20;1.40;;;14.20;99.90;;;;;;4976018;28;20058;-88
2022/09/15 02:33:09;;;;;;;7.40;1.52;;;14.20;99.90;;;;;;4975069;28;20057;-87
2022/09/15 02:35:42;;;;;;;10.35;1.40;;;14.20;99.90;;;;;;4981738;28;20085;-87
2022/09/15 02:38:09;;;;;;;7.10;1.42;;;14.20;99.90;;;;;;4979873;28;20125;-87
2022/09/15 02:40:39;;;;;;;6.28;1.60;;;14.20;99.90;;;;;;4992944;28;20045;-86
2022/09/15 02:43:10;;;;;;;3.70;1.48;;;14.20;99.90;;;;;;4979153;28;20078;-85
2022/09/15 02:45:36;;;;;;;8.98;1.65;;;14.20;99.90;;;;;;4962690;28;20532;-86
2022/09/15 02:48:03;;;;;;;6.28;1.50;;;14.20;99.90;;;;;;5005526;28;20038;-86
2022/09/15 02:50:29;;;;;;;5.45;1.42;;;14.10;99.90;;;;;;4980145;28;20042;-87
2022/09/15 02:52:58;;;;;;;5.93;1.55;;;14.10;99.90;;;;;;4976794;28;20102;-85
2022/09/15 02:55:27;;;;;;;8.23;1.95;;;14.00;99.90;;;;;;5004399;28;20930;-87
2022/09/15 02:57:57;;;;;;;5.15;1.50;;;14.00;99.90;;;;;;4976203;28;20055;-87
2022/09/15 03:00:23;;;;;;;8.45;1.70;;;13.90;99.90;;;;;;5008287;28;20054;-86
2022/09/15 03:02:52;;;;;;;5.32;1.40;;;14.00;99.90;;;;;;4970966;28;20524;-87
2022/09/15 03:05:20;;;;;;;8.07;1.80;;;14.00;99.90;;;;;;5003015;28;20043;-87
2022/09/15 03:07:46;;;;;;;5.93;1.60;;;13.90;99.90;;;;;;4983040;28;20434;-85
2022/09/15 03:10:12;;;;;;;5.68;1.40;;;14.00;99.90;;;;;;4978105;28;20345;-86
2022/09/15 03:12:50;;;;;;;7.40;1.50;;;13.90;99.90;;;;;;4969944;28;20050;-86
2022/09/15 03:15:18;;;;;;;6.25;1.50;;;13.90;99.90;;;;;;4983043;28;20049;-86
2022/09/15 03:17:45;;;;;;;7.45;1.52;;;13.90;99.90;;;;;;4977050;28;20042;-86
2022/09/15 03:20:17;;;;;;;6.75;1.50;;;13.90;99.90;;;;;;4984468;28;20158;-86
2022/09/15 03:22:43;;;;;;;9.55;1.83;;;13.90;99.90;;;;;;4989558;28;20050;-85
2022/09/15 03:25:09;;;;;;;6.60;1.38;;;13.90;99.90;;;;;;4971069;28;20051;-86
2022/09/15 03:27:35;;;;;;;7.55;1.50;;;13.90;99.90;;;;;;4974230;28;20042;-85
2022/09/15 03:30:02;;;;;;;9.30;1.58;;;13.90;99.90;;;;;;5011174;28;20050;-86
2022/09/15 03:32:27;;;;;;;5.30;1.30;;;13.90;99.90;;;;;;5010842;28;20513;-87
2022/09/15 03:34:53;;;;;;;5.22;1.45;;;13.90;99.90;;;;;;4993982;28;20092;-87
2022/09/15 03:37:19;;;;;;;6.80;1.20;;;13.90;99.90;;;;;;4996694;28;20545;-86
2022/09/15 03:39:46;;;;;;;8.30;1.48;;;13.90;99.90;;;;;;4968767;28;20057;-86
2022/09/15 03:42:13;;;;;;;7.13;1.52;;;13.90;99.90;;;;;;4983046;28;20193;-86
2022/09/15 03:44:38;;;;;;;5.20;1.50;;;13.90;99.90;;;;;;4979557;28;20479;-85
2022/09/15 03:47:07;;;;;;;5.93;1.45;;;13.90;99.90;;;;;;4990035;28;20034;-86
2022/09/15 03:49:33;;;;;;;5.78;1.48;;;13.90;99.90;;;;;;4984465;28;20129;-86
2022/09/15 03:51:58;;;;;;;5.00;1.23;;;13.90;99.90;;;;;;4990140;28;20137;-86
2022/09/15 03:54:27;;;;;;;7.93;1.70;;;13.90;99.90;;;;;;4997923;28;20051;-85
2022/09/15 03:56:53;;;;;;;6.65;1.55;;;13.80;99.90;;;;;;4995591;28;20061;-86
2022/09/15 03:59:20;;;;;;;5.93;1.25;;;13.90;99.90;;;;;;4984043;28;20140;-86
2022/09/15 04:01:49;;;;;;;5.22;1.23;;;13.80;99.90;;;;;;4960113;28;20050;-86
2022/09/15 04:04:16;;;;;;;6.30;1.40;;;13.80;99.90;;;;;;4977123;28;20046;-86
2022/09/15 04:06:42;;;;;;;5.53;1.27;;;13.80;99.90;;;;;;4979572;28;20049;-86
2022/09/15 04:09:09;;;;;;;5.55;1.02;;;13.70;99.90;;;;;;4975880;28;20411;-85
2022/09/15 04:11:35;;;;;;;5.20;1.40;;;13.70;99.90;;;;;;4995230;28;20042;-86
2022/09/15 04:14:01;;;;;;;5.05;1.40;;;13.80;99.90;;;;;;4983620;28;20054;-86
2022/09/15 04:16:27;;;;;;;4.90;1.50;;;13.70;99.90;;;;;;4974947;28;20136;-86
2022/09/15 04:18:53;;;;;;;8.20;1.55;;;13.70;99.90;;;;;;4968818;28;20266;-85
2022/09/15 04:21:22;;;;;;;7.80;1.60;;;13.70;99.90;;;;;;4965475;28;20113;-85
2022/09/15 04:23:48;;;;;;;8.93;1.52;;;13.70;99.90;;;;;;4970710;28;20105;-86
2022/09/15 04:26:21;;;;;;;5.18;1.55;;;13.60;99.90;;;;;;4993669;28;20205;-86
2022/09/15 04:28:47;;;;;;;7.00;1.70;;;13.60;99.90;;;;;;4998083;28;20568;-86
2022/09/15 04:31:14;;;;;;;6.45;1.50;;;13.60;99.90;;;;;;4985978;28;20048;-85
2022/09/15 04:33:41;;;;;;;7.95;1.65;;;13.50;99.90;;;;;;4982393;28;20113;-86
2022/09/15 04:36:20;;;;;;;6.00;1.42;;;13.60;99.90;;;;;;4984153;28;20394;-87
2022/09/15 04:38:46;;;;;;;11.13;1.48;;;13.60;99.90;;;;;;5006232;28;20125;-86
2022/09/15 04:41:15;;;;;;;6.05;1.33;;;13.60;99.90;;;;;;4985164;28;20164;-86
2022/09/15 04:43:44;;;;;;;4.78;1.13;;;13.60;99.90;;;;;;4963365;28;20495;-86
2022/09/15 04:46:12;;;;;;;7.65;1.40;;;13.50;99.90;;;;;;4980604;28;20034;-86
2022/09/15 04:48:38;;;;;;;6.63;1.30;;;13.50;99.90;;;;;;4984272;28;20050;-86
2022/09/15 04:51:07;;;;;;;7.40;1.73;;;13.60;99.90;;;;;;4984727;28;20398;-86
2022/09/15 04:53:34;;;;;;;8.77;1.85;;;13.60;99.90;;;;;;4999288;28;21033;-86
2022/09/15 04:56:09;;;;;;;4.28;1.42;;;13.50;99.90;;;;;;5010401;28;20140;-86
2022/09/15 04:58:37;;;;;;;7.00;2.22;;;13.60;99.90;;;;;;4980803;28;20050;-86
2022/09/15 05:01:15;;;;;;;8.60;1.55;;;13.60;99.90;;;;;;4982360;28;20065;-86
2022/09/15 05:03:42;;;;;;;5.93;1.23;;;13.60;99.90;;;;;;4976319;28;20977;-86
2022/09/15 05:06:12;;;;;;;9.95;1.48;;;13.60;99.90;;;;;;4973803;28;20055;-86
2022/09/15 05:08:38;;;;;;;5.75;1.30;;;13.60;99.90;;;;;;4969162;28;20042;-86
2022/09/15 05:11:07;;;;;;;4.72;1.30;;;13.60;99.90;;;;;;4985186;28;20045;-86
2022/09/15 05:13:33;;;;;;;6.45;1.70;;;13.50;99.90;;;;;;4970992;28;20327;-86
2022/09/15 05:16:22;;;;;;;8.98;1.90;;;13.60;99.90;;;;;;5008700;28;20076;-86
2022/09/15 05:18:49;;;;;;;5.05;1.40;;;13.60;99.90;;;;;;4991069;28;20035;-86
2022/09/15 05:21:18;;;;;;;6.28;1.55;;;13.50;99.90;;;;;;4977548;28;20040;-86
2022/09/15 05:23:45;;;;;;;6.40;1.38;;;13.50;99.90;;;;;;4974422;28;20494;-86
2022/09/15 05:26:13;;;;;;;5.63;1.40;;;13.50;99.90;;;;;;4992337;28;20052;-86
2022/09/15 05:28:39;;;;;;;5.22;1.73;;;13.40;99.90;;;;;;4994073;28;20046;-86
2022/09/15 05:31:17;;;;;;;9.73;1.45;;;13.40;99.90;;;;;;4961270;28;20512;-86
2022/09/15 05:33:44;;;;;;;8.07;1.80;;;13.30;99.90;;;;;;4972163;28;20541;-86
2022/09/15 05:36:10;;;;;;;3.50;1.35;;;13.30;99.90;;;;;;4962932;28;20074;-85
2022/09/15 05:38:36;;;;;;;6.25;1.90;;;13.20;99.90;;;;;;4962327;28;20058;-86
2022/09/15 05:41:07;;;;;;;11.30;1.77;;;13.20;99.90;;;;;;4987567;28;20553;-86
2022/09/15 05:43:35;;;;;;;4.97;1.45;;;13.20;29.70;;;;;;4993332;28;20128;-86
2022/09/15 05:46:06;;;;;;;6.63;1.13;;;13.20;1.00;;;;;;4991077;28;20428;-86
2022/09/15 05:48:33;;;;;;;6.20;1.35;;;13.30;1.00;;;;;;4963098;28;20484;-87
2022/09/15 05:50:59;;;;;;;4.50;1.70;;;13.30;99.90;;;;;;5008330;28;20463;-86
2022/09/15 05:53:25;;;;;;;6.72;1.30;;;13.30;99.90;;;;;;5005584;28;20074;-86
2022/09/15 05:55:56;;;;;;;4.95;1.30;;;13.30;99.90;;;;;;4969023;28;20405;-86
2022/09/15 05:58:22;;;;;;;6.95;1.50;;;13.30;1.00;;;;;;4957297;28;20176;-87
2022/09/15 06:00:47;;;;;;;13.18;1.42;;;13.40;1.00;;;;;;4967140;28;20046;-86
2022/09/15 06:03:15;;;;;;;7.75;1.60;;;13.40;99.90;;;;;;5003792;28;20573;-86
2022/09/15 06:05:41;;;;;;;4.47;1.48;;;13.40;99.90;;;;;;4962889;28;20331;-86
2022/09/15 06:08:07;;;;;;;6.57;1.33;;;13.40;99.90;;;;;;4976675;28;20125;-86
2022/09/15 06:10:33;;;;;;;4.85;1.33;;;13.50;99.90;;;;;;4974018;28;20452;-86
2022/09/15 06:12:59;;;;;;;6.45;1.67;;;13.60;99.90;;;;;;4966514;28;20121;-86
2022/09/15 06:15:25;;;;;;;6.47;1.35;;;13.60;99.90;;;;;;4969473;28;20394;-86
2022/09/15 06:17:50;;;;;;;7.90;2.33;;;13.60;1.00;;;;;;4982646;28;20052;-85
2022/09/15 06:20:20;;;;;;;8.60;1.60;;;13.70;1.00;;;;;;4993232;28;20055;-86
2022/09/15 06:22:45;;;;;;;4.72;1.42;;;13.80;1.00;;;;;;4981995;28;20038;-85
2022/09/15 06:25:12;;;;;;;8.63;1.70;;;13.90;99.90;;;;;;4982932;28;20505;-87
2022/09/15 06:27:39;;;;;;;11.13;1.65;;;13.90;99.90;;;;;;4976464;28;20053;-86
2022/09/15 06:30:06;;;;;;;6.03;1.40;;;13.90;1.00;;;;;;4965143;28;20436;-86
2022/09/15 06:32:32;;;;;;;5.97;1.80;;;14.10;1.00;;;;;;4986581;28;20202;-87
2022/09/15 06:34:58;;;;;;;4.50;1.45;;;14.00;1.00;;;;;;4962022;28;20513;-86
2022/09/15 06:37:24;;;;;;;9.43;1.83;;;14.20;99.90;;;;;;5010066;28;20568;-87
2022/09/15 06:39:50;;;;;;;7.65;1.65;;;14.20;1.00;;;;;;4997783;28;20042;-86
2022/09/15 06:42:18;;;;;;;5.15;1.33;;;14.30;99.90;;;;;;4989052;28;20054;-86
2022/09/15 06:44:44;;;;;;;5.95;1.27;;;14.40;99.90;;;;;;4990083;28;20444;-86
2022/09/15 06:47:14;;;;;;;4.15;1.50;;;14.40;1.00;;;;;;4969077;28;20050;-86
2022/09/15 06:49:39;;;;;;;3.63;1.15;;;14.40;1.00;;;;;;4994808;28;20157;-86
2022/09/15 06:52:05;;;;;;;5.15;1.60;;;14.50;99.90;;;;;;4970766;28;20207;-86
2022/09/15 06:54:31;;;;;;;5.72;1.15;;;14.50;42.90;;;;;;4983231;28;20038;-86
2022/09/15 06:56:57;;;;;;;7.68;1.35;;;14.50;99.90;;;;;;4988650;28;20050;-86
2022/09/15 06:59:23;;;;;;;4.72;1.58;;;14.50;99.90;;;;;;4965939;28;20050;-86
2022/09/15 07:01:53;;;;;;;9.48;1.88;;;14.60;99.90;;;;;;4986073;28;20323;-85
2022/09/15 07:04:18;;;;;;;4.32;1.20;;;14.60;99.90;;;;;;4971643;28;20110;-86
2022/09/15 07:06:46;;;;;;;5.45;1.05;;;14.70;99.90;;;;;;4966921;28;20042;-86
2022/09/15 07:09:15;;;;;;;5.47;1.65;;;14.80;99.90;;;;;;5014598;28;20382;-86
2022/09/15 07:11:41;;;;;;;4.70;1.38;;;14.90;99.90;;;;;;4970906;28;20055;-86
2022/09/15 07:14:07;;;;;;;9.52;1.33;;;14.90;99.90;;;;;;4986021;28;20042;-86
2022/09/15 07:16:33;;;;;;;5.25;1.25;;;15.00;1.00;;;;;;5006509;28;20053;-87
2022/09/15 07:19:00;;;;;;;7.07;1.45;;;15.10;99.90;;;;;;4973247;28;20153;-86
2022/09/15 07:21:27;;;;;;;4.05;1.20;;;15.20;99.90;;;;;;5005985;28;20489;-87
2022/09/15 07:23:56;;;;;;;3.13;1.40;;;15.20;99.90;;;;;;4987125;28;20068;-86
2022/09/15 07:26:24;;;;;;;3.45;0.82;;;15.30;99.90;;;;;;4995198;28;20128;-86
2022/09/15 07:28:54;;;;;;;4.28;1.42;;;15.30;99.90;;;;;;4981202;28;20053;-87
2022/09/15 07:31:23;;;;;;;4.30;1.73;;;15.40;99.90;;;;;;4984163;28;20092;-86
2022/09/15 07:33:48;;;;;;;6.43;1.30;;;15.50;99.90;;;;;;5009915;28;20038;-86
2022/09/15 07:36:14;;;;;;;7.40;1.48;;;15.50;99.90;;;;;;4977729;28;20401;-86
2022/09/15 07:38:43;;;;;;;7.68;1.20;;;15.50;99.90;;;;;;4967637;28;20045;-87
2022/09/15 07:41:24;;;;;;;3.42;1.25;;;15.60;1.00;;;;;;4994463;28;20050;-86
2022/09/15 07:43:51;;;;;;;5.78;1.30;;;15.70;99.90;;;;;;4992946;28;20050;-87
2022/09/15 07:46:19;;;;;;;5.55;1.50;;;15.70;19.30;;;;;;5012263;28;20066;-87
2022/09/15 07:48:50;;;;;;;4.38;1.00;;;15.70;99.90;;;;;;4969090;28;20965;-86
2022/09/15 07:51:16;;;;;;;5.95;1.45;;;15.80;99.90;;;;;;5007788;28;20043;-86
2022/09/15 07:53:43;;;;;;;7.22;1.40;;;15.80;99.90;;;;;;4967092;28;20041;-87
2022/09/15 07:56:09;;;;;;;4.72;1.23;;;15.80;99.90;;;;;;4985811;28;20057;-86
2022/09/15 07:58:35;;;;;;;6.82;1.40;;;15.90;99.90;;;;;;4983815;28;20434;-85
2022/09/15 08:01:03;;;;;;;6.68;1.48;;;15.90;99.90;;;;;;4990053;28;20078;-86
2022/09/15 08:03:29;;;;;;;5.40;1.13;;;15.90;99.90;;;;;;4983399;28;20042;-86
2022/09/15 08:06:21;;;;;;;5.95;1.50;;;15.90;99.90;;;;;;4980937;28;20121;-87
2022/09/15 08:08:49;;;;;;;4.80;1.38;;;15.90;99.90;;;;;;5010701;28;20043;-85
2022/09/15 08:11:17;;;;;;;5.53;1.15;;;15.90;1.00;;;;;;4968342;28;20042;-87
2022/09/15 08:13:43;;;;;;;6.10;1.58;;;15.90;99.90;;;;;;4988049;28;20059;-86
2022/09/15 08:16:16;;;;;;;4.90;1.15;;;16.00;99.90;;;;;;4980520;28;20111;-86
2022/09/15 08:18:43;;;;;;;3.30;1.30;;;16.00;99.90;;;;;;5003917;28;20617;-87
2022/09/15 08:21:12;;;;;;;5.38;1.02;;;16.20;99.90;;;;;;5003063;28;20582;-86
2022/09/15 08:23:42;;;;;;;3.78;1.45;;;16.30;99.90;;;;;;4984091;28;20054;-86
2022/09/15 08:26:10;;;;;;;4.93;0.95;;;16.40;1.00;;;;;;4978234;28;20051;-86
2022/09/15 08:28:36;;;;;;;3.50;1.15;;;16.40;14.80;;;;;;4993075;28;20459;-86
2022/09/15 08:31:07;;;;;;;6.15;1.35;;;16.40;86.50;;;;;;4984183;28;20495;-87
2022/09/15 08:33:33;;;;;;;4.70;1.30;;;16.70;99.90;;;;;;4979943;28;20084;-86
2022/09/15 08:36:17;;;;;;;4.45;1.45;;;16.70;1.00;;;;;;4993012;28;20038;-86
2022/09/15 08:38:45;;;;;;;3.15;1.17;;;16.90;98.00;;;;;;5008271;28;20588;-86
2022/09/15 08:41:40;;;;;;;4.68;1.02;;;17.00;99.90;;;;;;4988365;28;20490;-86
2022/09/15 08:44:50;;;;;;;3.80;1.05;;;16.70;99.90;;;;;;4974708;28;20100;-90
2022/09/15 08:47:32;;;;;;;3.67;1.52;;;16.60;99.90;;;;;;4941047;28;20557;-88
2022/09/15 08:50:10;;;;;;;5.05;1.40;;;16.50;1.00;;;;;;4961694;28;20050;-87
2022/09/15 08:52:45;;;;;;;4.13;1.38;;;16.40;67.00;;;;;;4965916;28;20045;-86
2022/09/15 08:55:37;;;;;;;5.45;1.27;;;16.40;1.00;;;;;;4976136;28;20064;-87
2022/09/15 08:58:04;;;;;;;3.75;1.73;;;16.70;1.00;;;;;;4978756;28;20661;-87
2022/09/15 09:00:31;;;;;;;6.10;1.85;;;16.60;99.90;;;;;;4989525;28;20095;-87
2022/09/15 09:02:57;;;;;;;6.93;1.63;;;16.50;99.90;;;;;;4994861;28;20042;-87
2022/09/15 09:05:31;;;;;;;6.53;1.60;;;16.50;1.00;;;;;;4984029;28;20057;-87
2022/09/15 09:08:22;;;;;;;4.50;1.15;;;16.30;99.90;;;;;;4981707;28;20355;-87
2022/09/15 09:10:54;;;;;;;3.90;1.20;;;16.30;99.90;;;;;;5008130;28;20049;-87
2022/09/15 09:13:23;;;;;;;5.10;1.48;;;16.00;99.90;;;;;;4981233;28;20064;-91
2022/09/15 09:16:08;;;;;;;4.00;1.33;;;15.70;99.90;;;;;;4968787;28;20138;-92
2022/09/15 09:19:14;;;;;;;6.50;1.40;;;15.60;99.90;;;;;;4958748;28;20305;-88
2022/09/15 09:21:50;;;;;;;7.93;2.05;;;15.80;1.00;;;;;;4967594;28;20074;-87
2022/09/15 09:24:27;;;;;;;6.05;1.20;;;16.10;99.90;;;;;;4989020;28;20082;-87
2022/09/15 09:26:54;;;;;;;4.70;1.08;;;16.30;52.00;;;;;;5007985;28;20418;-87
2022/09/15 09:29:31;;;;;;;5.63;1.48;;;16.30;99.90;;;;;;4999774;28;20047;-86
2022/09/15 09:31:58;;;;;;;4.38;1.33;;;16.50;99.90;;;;;;4978566;28;20084;-87
2022/09/15 09:34:44;;;;;;;6.78;1.45;;;16.60;99.90;;;;;;5008390;28;20060;-86
2022/09/15 09:37:13;;;;;;;7.57;1.33;;;16.50;1.00;;;;;;4964608;28;20062;-87
2022/09/15 09:39:39;;;;;;;7.00;1.40;;;16.50;1.00;;;;;;5007045;28;20049;-87
2022/09/15 09:42:06;;;;;;;5.63;1.70;;;16.90;99.90;;;;;;4969399;28;20038;-87
2022/09/15 09:44:32;;;;;;;6.72;1.58;;;16.90;1.00;;;;;;4971603;28;20558;-87
2022/09/15 09:46:59;;;;;;;8.00;1.58;;;17.20;99.90;;;;;;4977200;28;20438;-87
2022/09/15 09:49:38;;;;;;;6.63;1.77;;;17.60;1.00;;;;;;4992126;28;20510;-87
2022/09/15 09:52:04;;;;;;;5.20;1.38;;;17.50;99.90;;;;;;4984781;28;20045;-88
2022/09/15 09:54:32;;;;;;;7.70;1.40;;;17.50;99.90;;;;;;4965015;28;20050;-87
2022/09/15 09:57:14;;;;;;;4.57;0.90;;;17.50;99.90;;;;;;4969136;28;20440;-88
2022/09/15 09:59:45;;;;;;;4.03;1.10;;;16.30;99.90;;;;;;5003047;28;20143;-89
2022/09/15 10:02:17;;;;;;;4.38;1.17;;;16.40;29.40;;;;;;4977671;28;20047;-87
2022/09/15 10:05:05;;;;;;;1.92;0.80;;;16.30;99.90;;;;;;4987112;28;20070;-88
2022/09/15 10:07:33;;;;;;;2.53;0.98;;;16.10;99.90;;;;;;5006353;28;20070;-88
2022/09/15 10:10:01;;;;;;;2.38;0.85;;;16.10;1.00;;;;;;4966721;28;20042;-87
2022/09/15 10:12:39;;;;;;;2.30;0.90;;;16.10;1.10;;;;;;4962325;28;20088;-86
2022/09/15 10:15:22;;;;;;;3.20;1.17;;;16.30;74.60;;;;;;4976772;28;20042;-86
2022/09/15 10:17:50;;;;;;;3.25;0.95;;;16.20;99.90;;;;;;4976150;28;20121;-86
2022/09/15 10:20:32;;;;;;;2.75;1.02;;;16.80;1.00;;;;;;5010404;28;20049;-86
2022/09/15 10:23:25;;;;;;;2.60;0.90;;;17.20;99.90;;;;;;4978992;28;20052;-86
2022/09/15 10:25:55;;;;;;;7.13;1.13;;;17.70;99.90;;;;;;4955520;28;20321;-87
2022/09/15 10:28:24;;;;;;;4.43;0.90;;;17.60;1.00;;;;;;4975568;28;20214;-87
2022/09/15 10:31:12;;;;;;;11.27;1.42;;;18.00;1.00;;;;;;5007192;28;20042;-86
2022/09/15 10:33:43;;;;;;;1.58;0.93;;;18.30;99.90;;;;;;4975528;28;20447;-86
2022/09/15 10:36:15;;;;;;;4.68;1.33;;;18.50;69.60;;;;;;4976910;28;20486;-87
2022/09/15 10:38:54;;;;;;;3.53;1.10;;;18.90;99.90;;;;;;4970765;28;20050;-87
2022/09/15 10:41:29;;;;;;;3.33;1.00;;;18.60;99.90;;;;;;4984894;28;20050;-87
2022/09/15 10:43:58;;;;;;;5.15;0.90;;;18.50;99.90;;;;;;4980121;28;20498;-87
2022/09/15 10:46:49;;;;;;;3.85;1.05;;;18.40;99.90;;;;;;4979416;28;20386;-86
2022/09/15 10:49:17;;;;;;;4.72;1.17;;;18.50;99.90;;;;;;4971734;28;20046;-87
2022/09/15 10:52:15;;;;;;;6.85;1.38;;;18.00;99.90;;;;;;4984888;28;20073;-90
2022/09/15 10:54:52;;;;;;;6.85;1.35;;;15.90;99.90;;;;;;4985747;28;20050;-87
2022/09/15 10:57:50;;;;;;;6.50;1.05;;;15.60;99.90;;;;;;4980430;28;20053;-85
2022/09/15 11:00:24;;;;;;;4.10;1.10;;;15.60;1.00;;;;;;4966845;28;20053;-85
2022/09/15 11:03:11;;;;;;;4.50;1.30;;;15.70;99.90;;;;;;4978925;28;20117;-86
2022/09/15 11:05:45;;;;;;;5.50;1.10;;;15.80;99.90;;;;;;5015547;28;20054;-85
2022/09/15 11:08:29;;;;;;;5.38;1.30;;;15.90;99.90;;;;;;4967227;28;20510;-86
2022/09/15 11:11:21;;;;;;;6.07;1.15;;;16.00;99.90;;;;;;4986221;28;20120;-86
2022/09/15 11:14:15;;;;;;;3.05;1.17;;;16.40;99.90;;;;;;4963957;28;20046;-85
2022/09/15 11:17:18;;;;;;;2.13;0.77;;;16.30;1.00;;;;;;4980028;28;20296;-85
2022/09/15 11:20:10;;;;;;;2.38;0.90;;;16.60;99.90;;;;;;4984370;28;20050;-86
2022/09/15 11:23:10;;;;;;;2.30;0.70;;;16.80;12.60;;;;;;4996191;28;20374;-86
2022/09/15 11:25:42;;;;;;;0.82;0.50;;;17.00;53.50;;;;;;4992741;28;20576;-85
2022/09/15 11:28:49;;;;;;;1.55;0.68;;;17.00;99.90;;;;;;4987203;28;20077;-86
2022/09/15 11:31:29;;;;;;;1.95;0.85;;;17.00;1.00;;;;;;4988588;28;20042;-86
2022/09/15 11:33:58;;;;;;;3.97;0.90;;;17.20;1.00;;;;;;5017228;28;20423;-85
2022/09/15 11:36:40;;;;;;;3.63;0.70;;;17.20;1.00;;;;;;4983692;28;20519;-86
2022/09/15 11:39:12;;;;;;;1.10;0.60;;;17.20;99.90;;;;;;5011682;28;20041;-86
2022/09/15 11:41:55;;;;;;;3.60;0.70;;;17.40;1.00;;;;;;4989688;28;20125;-85
2022/09/15 11:44:29;;;;;;;3.35;0.80;;;17.50;99.90;;;;;;4997034;28;20051;-87
2022/09/15 11:47:04;;;;;;;4.15;0.88;;;17.60;99.90;;;;;;4968049;28;20038;-86
2022/09/15 11:49:51;;;;;;;3.83;0.85;;;17.70;99.90;;;;;;4999446;28;20433;-86
2022/09/15 11:52:50;;;;;;;9.15;1.15;;;18.10;1.00;;;;;;4992414;28;20495;-86
2022/09/15 11:55:23;;;;;;;2.80;0.93;;;18.00;1.00;;;;;;5009854;28;20479;-86
2022/09/15 11:58:18;;;;;;;5.15;0.88;;;18.10;99.90;;;;;;4990823;28;20081;-86
2022/09/15 12:00:50;;;;;;;3.05;0.68;;;18.30;99.90;;;;;;4985812;28;20059;-86
2022/09/15 12:03:27;;;;;;;1.98;0.90;;;18.40;99.90;;;;;;4987836;28;20259;-87
2022/09/15 12:06:02;;;;;;;4.60;1.00;;;18.20;99.90;;;;;;4983300;28;20430;-86
2022/09/15 12:08:42;;;;;;;5.18;1.10;;;18.10;99.90;;;;;;4981464;28;20418;-87
2022/09/15 12:11:17;;;;;;;4.57;0.82;;;18.20;98.90;;;;;;4977954;28;20198;-86
2022/09/15 12:13:44;;;;;;;2.03;0.60;;;18.20;1.00;;;;;;4994235;28;20066;-86
2022/09/15 12:16:10;;;;;;;2.83;0.98;;;18.30;1.00;;;;;;4983821;28;20442;-86
2022/09/15 12:18:51;;;;;;;2.92;1.08;;;18.30;1.00;;;;;;4973493;28;20597;-87
2022/09/15 12:21:26;;;;;;;3.45;0.88;;;18.10;41.50;;;;;;4969308;28;20049;-87
2022/09/15 12:24:16;;;;;;;5.28;1.30;;;18.90;99.90;;;;;;5011332;28;20046;-87
2022/09/15 12:26:45;;;;;;;5.13;1.17;;;18.40;1.00;;;;;;4983633;28;20062;-86
2022/09/15 12:29:26;;;;;;;5.40;1.05;;;18.00;1.00;;;;;;4980052;28;20056;-86
2022/09/15 12:32:29;;;;;;;5.40;1.23;;;17.90;24.70;;;;;;4987917;28;20327;-87
2022/09/15 12:35:00;;;;;;;3.15;0.80;;;17.50;1.00;;;;;;4983908;28;20042;-87
2022/09/15 12:37:40;;;;;;;4.07;0.80;;;17.20;99.90;;;;;;4968410;28;20058;-87
2022/09/15 12:40:28;;;;;;;3.80;0.77;;;17.80;99.90;;;;;;5009436;28;20050;-86
2022/09/15 12:43:02;;;;;;;3.38;0.80;;;17.80;99.90;;;;;;5006838;28;20475;-87
2022/09/15 12:45:35;;;;;;;3.00;0.85;;;17.50;27.60;;;;;;5005295;28;20395;-87
2022/09/15 12:48:02;;;;;;;1.55;0.60;;;17.40;99.90;;;;;;5006185;28;20041;-87
2022/09/15 12:50:39;;;;;;;2.08;1.00;;;17.40;99.90;;;;;;4975809;28;20047;-86
2022/09/15 12:53:16;;;;;;;4.85;0.95;;;17.20;99.90;;;;;;4998190;28;20113;-87
2022/09/15 12:55:58;;;;;;;5.10;1.10;;;17.00;99.90;;;;;;4981427;28;20045;-86
2022/09/15 12:58:39;;;;;;;4.45;0.82;;;16.60;1.00;;;;;;4957773;28;20558;-88
2022/09/15 13:01:51;;;;;;;5.05;0.98;;;16.60;1.00;;;;;;4959254;28;20458;-86
2022/09/15 13:04:43;;;;;;;4.10;0.88;;;16.60;1.00;;;;;;4953699;28;20101;-86
2022/09/15 13:07:16;;;;;;;2.47;0.85;;;16.80;1.00;;;;;;4985243;28;20049;-87
2022/09/15 13:10:06;;;;;;;3.40;0.90;;;16.90;1.00;;;;;;4989638;28;20104;-87
2022/09/15 13:12:36;;;;;;;4.25;0.90;;;17.00;99.90;;;;;;4965196;28;20078;-87
2022/09/15 13:15:06;;;;;;;1.98;0.80;;;17.20;99.90;;;;;;4980855;28;20092;-87